sensor_id;sensor_type;location;lat;lon;timestamp;temperature;humidity
68922;DHT22;55959;51.244;5.724;2022-11-03T00:02:03;15.40;61.90
68922;DHT22;55959;51.244;5.724;2022-11-03T00:04:29;15.50;62.00
68922;DHT22;55959;51.244;5.724;2022-11-03T00:06:55;15.50;61.80
68922;DHT22;55959;51.244;5.724;2022-11-03T00:09:22;15.50;61.80
68922;DHT22;55959;51.244;5.724;2022-11-03T00:11:50;15.50;61.80
68922;DHT22;55959;51.244;5.724;2022-11-03T00:14:16;15.50;61.80
68922;DHT22;55959;51.244;5.724;2022-11-03T00:16:42;15.50;61.60
68922;DHT22;55959;51.244;5.724;2022-11-03T00:19:10;15.50;61.50
68922;DHT22;55959;51.244;5.724;2022-11-03T00:21:37;15.60;61.50
68922;DHT22;55959;51.244;5.724;2022-11-03T00:24:03;15.60;61.40
68922;DHT22;55959;51.244;5.724;2022-11-03T00:26:31;15.60;61.30
68922;DHT22;55959;51.244;5.724;2022-11-03T00:29:20;15.60;61.30
68922;DHT22;55959;51.244;5.724;2022-11-03T00:31:45;15.60;61.30
68922;DHT22;55959;51.244;5.724;2022-11-03T00:34:11;15.60;61.20
68922;DHT22;55959;51.244;5.724;2022-11-03T00:36:42;15.60;61.10
68922;DHT22;55959;51.244;5.724;2022-11-03T00:39:08;15.60;61.10
68922;DHT22;55959;51.244;5.724;2022-11-03T00:41:35;15.60;61.00
68922;DHT22;55959;51.244;5.724;2022-11-03T00:44:01;15.60;60.90
68922;DHT22;55959;51.244;5.724;2022-11-03T00:46:27;15.60;60.90
68922;DHT22;55959;51.244;5.724;2022-11-03T00:48:55;15.60;60.80
68922;DHT22;55959;51.244;5.724;2022-11-03T00:51:27;15.60;60.80
68922;DHT22;55959;51.244;5.724;2022-11-03T00:54:03;15.60;60.70
68922;DHT22;55959;51.244;5.724;2022-11-03T00:56:32;15.60;60.70
68922;DHT22;55959;51.244;5.724;2022-11-03T00:59:03;15.60;60.60
68922;DHT22;55959;51.244;5.724;2022-11-03T01:01:34;15.60;60.60
68922;DHT22;55959;51.244;5.724;2022-11-03T01:04:04;15.60;60.60
68922;DHT22;55959;51.244;5.724;2022-11-03T01:06:51;15.60;61.40
68922;DHT22;55959;51.244;5.724;2022-11-03T01:12:22;15.60;60.40
68922;DHT22;55959;51.244;5.724;2022-11-03T01:14:50;15.70;60.40
68922;DHT22;55959;51.244;5.724;2022-11-03T01:17:19;15.60;60.40
68922;DHT22;55959;51.244;5.724;2022-11-03T01:19:46;15.60;60.20
68922;DHT22;55959;51.244;5.724;2022-11-03T01:22:13;15.70;60.30
68922;DHT22;55959;51.244;5.724;2022-11-03T01:24:40;15.70;60.20
68922;DHT22;55959;51.244;5.724;2022-11-03T01:27:08;15.70;60.20
68922;DHT22;55959;51.244;5.724;2022-11-03T01:29:34;15.70;60.20
68922;DHT22;55959;51.244;5.724;2022-11-03T01:32:00;15.70;60.20
68922;DHT22;55959;51.244;5.724;2022-11-03T01:34:25;15.70;60.20
68922;DHT22;55959;51.244;5.724;2022-11-03T01:36:51;15.70;60.20
68922;DHT22;55959;51.244;5.724;2022-11-03T01:39:18;15.70;60.20
68922;DHT22;55959;51.244;5.724;2022-11-03T01:41:46;15.70;60.20
68922;DHT22;55959;51.244;5.724;2022-11-03T01:46:56;15.70;60.20
68922;DHT22;55959;51.244;5.724;2022-11-03T01:49:51;15.70;60.20
68922;DHT22;55959;51.244;5.724;2022-11-03T01:52:24;15.70;60.20
68922;DHT22;55959;51.244;5.724;2022-11-03T01:54:58;15.70;60.30
68922;DHT22;55959;51.244;5.724;2022-11-03T01:57:33;15.70;60.20
68922;DHT22;55959;51.244;5.724;2022-11-03T02:00:03;15.70;60.30
68922;DHT22;55959;51.244;5.724;2022-11-03T02:02:30;15.70;60.30
68922;DHT22;55959;51.244;5.724;2022-11-03T02:04:56;15.70;60.40
68922;DHT22;55959;51.244;5.724;2022-11-03T02:08:04;15.70;60.40
68922;DHT22;55959;51.244;5.724;2022-11-03T02:10:33;15.70;60.50
68922;DHT22;55959;51.244;5.724;2022-11-03T02:12:59;15.70;60.50
68922;DHT22;55959;51.244;5.724;2022-11-03T02:15:27;15.70;60.60
68922;DHT22;55959;51.244;5.724;2022-11-03T02:17:55;15.70;60.60
68922;DHT22;55959;51.244;5.724;2022-11-03T02:20:25;15.70;60.60
68922;DHT22;55959;51.244;5.724;2022-11-03T02:24:08;15.80;60.60
68922;DHT22;55959;51.244;5.724;2022-11-03T02:26:05;15.80;60.60
68922;DHT22;55959;51.244;5.724;2022-11-03T02:28:32;15.80;60.60
68922;DHT22;55959;51.244;5.724;2022-11-03T02:34:05;15.80;60.60
68922;DHT22;55959;51.244;5.724;2022-11-03T02:39:42;15.80;60.70
68922;DHT22;55959;51.244;5.724;2022-11-03T02:42:08;15.80;60.80
68922;DHT22;55959;51.244;5.724;2022-11-03T02:44:36;15.80;60.60
68922;DHT22;55959;51.244;5.724;2022-11-03T02:47:06;15.80;60.70
68922;DHT22;55959;51.244;5.724;2022-11-03T02:49:38;15.80;60.70
68922;DHT22;55959;51.244;5.724;2022-11-03T02:52:05;15.80;60.80
68922;DHT22;55959;51.244;5.724;2022-11-03T02:54:52;15.80;60.80
68922;DHT22;55959;51.244;5.724;2022-11-03T02:57:21;15.80;60.70
68922;DHT22;55959;51.244;5.724;2022-11-03T02:59:54;15.80;60.70
68922;DHT22;55959;51.244;5.724;2022-11-03T03:02:32;15.80;60.80
68922;DHT22;55959;51.244;5.724;2022-11-03T03:05:06;15.80;60.80
68922;DHT22;55959;51.244;5.724;2022-11-03T03:07:36;15.80;60.80
68922;DHT22;55959;51.244;5.724;2022-11-03T03:10:34;15.80;60.80
68922;DHT22;55959;51.244;5.724;2022-11-03T03:13:03;15.80;60.90
68922;DHT22;55959;51.244;5.724;2022-11-03T03:15:46;15.80;61.00
68922;DHT22;55959;51.244;5.724;2022-11-03T03:18:29;15.70;61.00
68922;DHT22;55959;51.244;5.724;2022-11-03T03:21:14;15.70;61.10
68922;DHT22;55959;51.244;5.724;2022-11-03T03:23:53;15.70;61.20
68922;DHT22;55959;51.244;5.724;2022-11-03T03:26:51;15.70;61.20
68922;DHT22;55959;51.244;5.724;2022-11-03T03:29:39;15.70;61.40
68922;DHT22;55959;51.244;5.724;2022-11-03T03:32:12;15.70;61.40
68922;DHT22;55959;51.244;5.724;2022-11-03T03:34:40;15.70;61.40
68922;DHT22;55959;51.244;5.724;2022-11-03T03:37:08;15.60;61.50
68922;DHT22;55959;51.244;5.724;2022-11-03T03:39:37;15.70;61.60
68922;DHT22;55959;51.244;5.724;2022-11-03T03:42:07;15.60;61.60
68922;DHT22;55959;51.244;5.724;2022-11-03T03:44:34;15.60;61.70
68922;DHT22;55959;51.244;5.724;2022-11-03T03:47:04;15.60;61.80
68922;DHT22;55959;51.244;5.724;2022-11-03T03:49:33;15.60;61.80
68922;DHT22;55959;51.244;5.724;2022-11-03T03:52:00;15.60;61.90
68922;DHT22;55959;51.244;5.724;2022-11-03T03:54:26;15.60;62.00
68922;DHT22;55959;51.244;5.724;2022-11-03T03:57:03;15.60;62.10
68922;DHT22;55959;51.244;5.724;2022-11-03T03:59:29;15.60;62.20
68922;DHT22;55959;51.244;5.724;2022-11-03T04:01:56;15.60;62.30
68922;DHT22;55959;51.244;5.724;2022-11-03T04:04:22;15.60;62.40
68922;DHT22;55959;51.244;5.724;2022-11-03T04:06:48;15.60;62.60
68922;DHT22;55959;51.244;5.724;2022-11-03T04:09:13;15.60;62.60
68922;DHT22;55959;51.244;5.724;2022-11-03T04:11:39;15.60;62.70
68922;DHT22;55959;51.244;5.724;2022-11-03T04:14:23;15.60;62.80
68922;DHT22;55959;51.244;5.724;2022-11-03T04:17:34;15.60;62.90
68922;DHT22;55959;51.244;5.724;2022-11-03T04:20:18;15.60;63.00
68922;DHT22;55959;51.244;5.724;2022-11-03T04:23:02;15.60;63.10
68922;DHT22;55959;51.244;5.724;2022-11-03T04:25:28;15.60;63.20
68922;DHT22;55959;51.244;5.724;2022-11-03T04:27:54;15.60;63.20
68922;DHT22;55959;51.244;5.724;2022-11-03T04:30:20;15.60;63.20
68922;DHT22;55959;51.244;5.724;2022-11-03T04:32:50;15.70;63.30
68922;DHT22;55959;51.244;5.724;2022-11-03T04:35:25;15.70;63.30
68922;DHT22;55959;51.244;5.724;2022-11-03T04:38:01;15.70;63.30
68922;DHT22;55959;51.244;5.724;2022-11-03T04:40:29;15.70;63.30
68922;DHT22;55959;51.244;5.724;2022-11-03T04:42:54;15.70;63.40
68922;DHT22;55959;51.244;5.724;2022-11-03T04:45:28;15.70;63.40
68922;DHT22;55959;51.244;5.724;2022-11-03T04:47:58;15.60;63.50
68922;DHT22;55959;51.244;5.724;2022-11-03T04:50:25;15.70;63.70
68922;DHT22;55959;51.244;5.724;2022-11-03T04:52:55;15.60;63.60
68922;DHT22;55959;51.244;5.724;2022-11-03T04:55:22;15.70;63.80
68922;DHT22;55959;51.244;5.724;2022-11-03T04:57:55;15.60;63.70
68922;DHT22;55959;51.244;5.724;2022-11-03T05:00:22;15.60;63.80
68922;DHT22;55959;51.244;5.724;2022-11-03T05:02:49;15.60;63.80
68922;DHT22;55959;51.244;5.724;2022-11-03T05:05:21;15.60;63.90
68922;DHT22;55959;51.244;5.724;2022-11-03T05:07:54;15.60;64.00
68922;DHT22;55959;51.244;5.724;2022-11-03T05:10:26;15.60;64.00
68922;DHT22;55959;51.244;5.724;2022-11-03T05:12:54;15.60;64.10
68922;DHT22;55959;51.244;5.724;2022-11-03T05:15:27;15.60;64.10
68922;DHT22;55959;51.244;5.724;2022-11-03T05:18:00;15.60;64.20
68922;DHT22;55959;51.244;5.724;2022-11-03T05:20:39;15.60;64.30
68922;DHT22;55959;51.244;5.724;2022-11-03T05:23:10;15.60;64.40
68922;DHT22;55959;51.244;5.724;2022-11-03T05:25:41;15.60;64.60
68922;DHT22;55959;51.244;5.724;2022-11-03T05:28:25;15.60;64.70
68922;DHT22;55959;51.244;5.724;2022-11-03T05:30:52;15.70;65.00
68922;DHT22;55959;51.244;5.724;2022-11-03T05:33:29;15.70;65.00
68922;DHT22;55959;51.244;5.724;2022-11-03T05:35:59;15.70;65.10
68922;DHT22;55959;51.244;5.724;2022-11-03T05:38:29;15.70;65.10
68922;DHT22;55959;51.244;5.724;2022-11-03T05:40:56;15.70;65.20
68922;DHT22;55959;51.244;5.724;2022-11-03T05:43:23;15.70;65.10
68922;DHT22;55959;51.244;5.724;2022-11-03T05:45:49;15.70;65.20
68922;DHT22;55959;51.244;5.724;2022-11-03T05:48:31;15.70;65.10
68922;DHT22;55959;51.244;5.724;2022-11-03T05:53:46;15.70;65.20
68922;DHT22;55959;51.244;5.724;2022-11-03T05:56:20;15.70;65.10
68922;DHT22;55959;51.244;5.724;2022-11-03T05:58:48;15.70;65.10
68922;DHT22;55959;51.244;5.724;2022-11-03T06:01:31;15.70;65.00
68922;DHT22;55959;51.244;5.724;2022-11-03T06:04:18;15.70;65.00
68922;DHT22;55959;51.244;5.724;2022-11-03T06:06:51;15.70;65.00
68922;DHT22;55959;51.244;5.724;2022-11-03T06:09:21;15.80;65.00
68922;DHT22;55959;51.244;5.724;2022-11-03T06:11:49;15.80;65.00
68922;DHT22;55959;51.244;5.724;2022-11-03T06:14:24;15.70;64.90
68922;DHT22;55959;51.244;5.724;2022-11-03T06:16:59;15.80;65.00
68922;DHT22;55959;51.244;5.724;2022-11-03T06:19:30;15.80;65.00
68922;DHT22;55959;51.244;5.724;2022-11-03T06:22:13;15.70;64.90
68922;DHT22;55959;51.244;5.724;2022-11-03T06:24:40;15.80;65.00
68922;DHT22;55959;51.244;5.724;2022-11-03T06:27:15;15.70;64.90
68922;DHT22;55959;51.244;5.724;2022-11-03T06:29:58;15.70;65.00
68922;DHT22;55959;51.244;5.724;2022-11-03T06:32:26;15.70;65.00
68922;DHT22;55959;51.244;5.724;2022-11-03T06:34:56;15.70;65.00
68922;DHT22;55959;51.244;5.724;2022-11-03T06:37:32;15.70;65.10
68922;DHT22;55959;51.244;5.724;2022-11-03T06:42:44;15.70;65.30
68922;DHT22;55959;51.244;5.724;2022-11-03T06:45:19;15.60;65.20
68922;DHT22;55959;51.244;5.724;2022-11-03T06:47:46;15.60;65.20
68922;DHT22;55959;51.244;5.724;2022-11-03T06:52:49;15.60;65.40
68922;DHT22;55959;51.244;5.724;2022-11-03T06:55:25;15.60;65.40
68922;DHT22;55959;51.244;5.724;2022-11-03T06:58:01;15.60;65.40
68922;DHT22;55959;51.244;5.724;2022-11-03T07:00:30;15.60;65.50
68922;DHT22;55959;51.244;5.724;2022-11-03T07:05:39;15.60;65.60
68922;DHT22;55959;51.244;5.724;2022-11-03T07:08:15;15.60;65.60
68922;DHT22;55959;51.244;5.724;2022-11-03T07:10:50;15.60;65.60
68922;DHT22;55959;51.244;5.724;2022-11-03T07:13:42;15.60;65.60
68922;DHT22;55959;51.244;5.724;2022-11-03T07:16:25;15.60;65.70
68922;DHT22;55959;51.244;5.724;2022-11-03T07:18:52;15.60;65.60
68922;DHT22;55959;51.244;5.724;2022-11-03T07:21:34;15.60;65.60
68922;DHT22;55959;51.244;5.724;2022-11-03T07:24:12;15.60;65.70
68922;DHT22;55959;51.244;5.724;2022-11-03T07:26:41;15.60;65.60
68922;DHT22;55959;51.244;5.724;2022-11-03T07:29:17;15.60;65.60
68922;DHT22;55959;51.244;5.724;2022-11-03T07:31:45;15.70;65.80
68922;DHT22;55959;51.244;5.724;2022-11-03T07:34:17;15.70;65.70
68922;DHT22;55959;51.244;5.724;2022-11-03T07:36:45;15.70;65.70
68922;DHT22;55959;51.244;5.724;2022-11-03T07:39:15;15.70;65.60
68922;DHT22;55959;51.244;5.724;2022-11-03T07:41:43;15.70;65.60
68922;DHT22;55959;51.244;5.724;2022-11-03T07:44:15;15.70;65.60
68922;DHT22;55959;51.244;5.724;2022-11-03T07:46:42;15.70;65.60
68922;DHT22;55959;51.244;5.724;2022-11-03T07:49:20;15.70;65.50
68922;DHT22;55959;51.244;5.724;2022-11-03T07:51:48;15.80;65.60
68922;DHT22;55959;51.244;5.724;2022-11-03T07:54:18;15.80;65.50
68922;DHT22;55959;51.244;5.724;2022-11-03T07:57:32;15.80;65.40
68922;DHT22;55959;51.244;5.724;2022-11-03T07:59:48;15.80;65.40
68922;DHT22;55959;51.244;5.724;2022-11-03T08:02:33;15.80;65.40
68922;DHT22;55959;51.244;5.724;2022-11-03T08:05:03;15.80;65.40
68922;DHT22;55959;51.244;5.724;2022-11-03T08:07:29;15.80;65.20
68922;DHT22;55959;51.244;5.724;2022-11-03T08:09:56;15.80;66.20
68922;DHT22;55959;51.244;5.724;2022-11-03T08:12:22;15.90;65.30
68922;DHT22;55959;51.244;5.724;2022-11-03T08:14:47;15.90;65.20
68922;DHT22;55959;51.244;5.724;2022-11-03T08:17:13;15.90;65.10
68922;DHT22;55959;51.244;5.724;2022-11-03T08:19:40;15.90;65.00
68922;DHT22;55959;51.244;5.724;2022-11-03T08:22:05;15.90;64.90
68922;DHT22;55959;51.244;5.724;2022-11-03T08:24:31;15.90;65.70
68922;DHT22;55959;51.244;5.724;2022-11-03T08:26:57;16.00;64.90
68922;DHT22;55959;51.244;5.724;2022-11-03T08:29:23;16.00;64.80
68922;DHT22;55959;51.244;5.724;2022-11-03T08:31:52;16.00;64.80
68922;DHT22;55959;51.244;5.724;2022-11-03T08:34:18;16.10;64.80
68922;DHT22;55959;51.244;5.724;2022-11-03T08:36:44;16.00;64.70
68922;DHT22;55959;51.244;5.724;2022-11-03T08:39:09;16.10;64.70
68922;DHT22;55959;51.244;5.724;2022-11-03T08:41:35;16.10;64.60
68922;DHT22;55959;51.244;5.724;2022-11-03T08:44:01;16.20;64.50
68922;DHT22;55959;51.244;5.724;2022-11-03T08:46:27;16.20;64.30
68922;DHT22;55959;51.244;5.724;2022-11-03T08:48:52;16.20;64.30
68922;DHT22;55959;51.244;5.724;2022-11-03T08:51:18;16.20;64.30
68922;DHT22;55959;51.244;5.724;2022-11-03T08:53:44;16.30;64.40
68922;DHT22;55959;51.244;5.724;2022-11-03T08:56:14;16.30;64.30
68922;DHT22;55959;51.244;5.724;2022-11-03T08:58:41;16.30;64.40
68922;DHT22;55959;51.244;5.724;2022-11-03T09:01:09;16.40;64.30
68922;DHT22;55959;51.244;5.724;2022-11-03T09:03:35;16.40;64.00
68922;DHT22;55959;51.244;5.724;2022-11-03T09:06:01;16.40;63.90
68922;DHT22;55959;51.244;5.724;2022-11-03T09:08:26;16.50;63.90
68922;DHT22;55959;51.244;5.724;2022-11-03T09:10:52;16.50;63.80
68922;DHT22;55959;51.244;5.724;2022-11-03T09:13:18;16.50;63.80
68922;DHT22;55959;51.244;5.724;2022-11-03T09:15:43;16.60;63.90
68922;DHT22;55959;51.244;5.724;2022-11-03T09:18:09;16.60;63.60
68922;DHT22;55959;51.244;5.724;2022-11-03T09:20:35;16.60;63.40
68922;DHT22;55959;51.244;5.724;2022-11-03T09:23:01;16.60;63.20
68922;DHT22;55959;51.244;5.724;2022-11-03T09:25:26;16.70;63.20
68922;DHT22;55959;51.244;5.724;2022-11-03T09:27:52;16.70;62.90
68922;DHT22;55959;51.244;5.724;2022-11-03T09:30:18;16.70;62.70
68922;DHT22;55959;51.244;5.724;2022-11-03T09:32:46;16.70;62.60
68922;DHT22;55959;51.244;5.724;2022-11-03T09:35:13;16.70;62.40
68922;DHT22;55959;51.244;5.724;2022-11-03T09:37:40;16.80;62.30
68922;DHT22;55959;51.244;5.724;2022-11-03T09:40:07;16.80;62.00
68922;DHT22;55959;51.244;5.724;2022-11-03T09:42:35;16.80;61.90
68922;DHT22;55959;51.244;5.724;2022-11-03T09:45:02;16.80;62.00
68922;DHT22;55959;51.244;5.724;2022-11-03T09:47:38;16.80;61.70
68922;DHT22;55959;51.244;5.724;2022-11-03T09:50:05;16.80;62.40
68922;DHT22;55959;51.244;5.724;2022-11-03T09:52:35;16.80;61.40
68922;DHT22;55959;51.244;5.724;2022-11-03T09:55:02;16.80;61.10
68922;DHT22;55959;51.244;5.724;2022-11-03T09:57:28;16.80;60.90
68922;DHT22;55959;51.244;5.724;2022-11-03T09:59:54;16.90;60.90
68922;DHT22;55959;51.244;5.724;2022-11-03T10:02:28;16.90;61.00
68922;DHT22;55959;51.244;5.724;2022-11-03T10:04:57;16.90;61.10
68922;DHT22;55959;51.244;5.724;2022-11-03T10:07:28;16.90;60.90
68922;DHT22;55959;51.244;5.724;2022-11-03T10:09:57;16.90;60.90
68922;DHT22;55959;51.244;5.724;2022-11-03T10:12:24;16.90;60.70
68922;DHT22;55959;51.244;5.724;2022-11-03T10:14:50;17.00;61.00
68922;DHT22;55959;51.244;5.724;2022-11-03T10:17:28;17.00;61.70
68922;DHT22;55959;51.244;5.724;2022-11-03T10:19:55;17.10;61.00
68922;DHT22;55959;51.244;5.724;2022-11-03T10:22:23;17.10;61.30
68922;DHT22;55959;51.244;5.724;2022-11-03T10:24:51;17.10;60.70
68922;DHT22;55959;51.244;5.724;2022-11-03T10:30:58;17.10;60.00
68922;DHT22;55959;51.244;5.724;2022-11-03T10:33:29;17.10;60.10
68922;DHT22;55959;51.244;5.724;2022-11-03T10:35:57;17.20;60.10
68922;DHT22;55959;51.244;5.724;2022-11-03T10:38:42;17.20;59.80
68922;DHT22;55959;51.244;5.724;2022-11-03T10:46:38;17.30;59.90
68922;DHT22;55959;51.244;5.724;2022-11-03T10:49:11;17.30;59.80
68922;DHT22;55959;51.244;5.724;2022-11-03T10:51:40;17.30;59.90
68922;DHT22;55959;51.244;5.724;2022-11-03T10:54:14;17.40;60.00
68922;DHT22;55959;51.244;5.724;2022-11-03T10:56:41;17.40;59.80
68922;DHT22;55959;51.244;5.724;2022-11-03T10:59:13;17.40;59.80
68922;DHT22;55959;51.244;5.724;2022-11-03T11:01:41;17.40;59.70
68922;DHT22;55959;51.244;5.724;2022-11-03T11:04:09;17.40;59.50
68922;DHT22;55959;51.244;5.724;2022-11-03T11:06:39;17.40;59.40
68922;DHT22;55959;51.244;5.724;2022-11-03T11:09:08;17.50;59.20
68922;DHT22;55959;51.244;5.724;2022-11-03T11:11:36;17.50;59.20
68922;DHT22;55959;51.244;5.724;2022-11-03T11:16:53;17.50;59.10
68922;DHT22;55959;51.244;5.724;2022-11-03T11:19:21;17.50;59.10
68922;DHT22;55959;51.244;5.724;2022-11-03T11:29:59;17.50;59.00
68922;DHT22;55959;51.244;5.724;2022-11-03T11:35:08;17.60;58.80
68922;DHT22;55959;51.244;5.724;2022-11-03T11:37:36;17.60;58.90
68922;DHT22;55959;51.244;5.724;2022-11-03T11:51:27;17.80;58.50
68922;DHT22;55959;51.244;5.724;2022-11-03T11:53:58;17.80;58.20
68922;DHT22;55959;51.244;5.724;2022-11-03T11:56:23;17.80;58.70
68922;DHT22;55959;51.244;5.724;2022-11-03T11:58:53;17.80;58.10
68922;DHT22;55959;51.244;5.724;2022-11-03T12:01:25;17.80;57.90
68922;DHT22;55959;51.244;5.724;2022-11-03T12:03:56;17.90;58.00
68922;DHT22;55959;51.244;5.724;2022-11-03T12:06:37;17.90;57.90
68922;DHT22;55959;51.244;5.724;2022-11-03T12:09:24;17.90;57.70
68922;DHT22;55959;51.244;5.724;2022-11-03T12:11:59;17.90;57.60
68922;DHT22;55959;51.244;5.724;2022-11-03T12:14:38;17.90;57.40
68922;DHT22;55959;51.244;5.724;2022-11-03T12:19:49;17.90;57.60
68922;DHT22;55959;51.244;5.724;2022-11-03T12:25:01;18.00;57.20
68922;DHT22;55959;51.244;5.724;2022-11-03T12:29:56;18.00;57.00
68922;DHT22;55959;51.244;5.724;2022-11-03T12:32:24;18.00;56.90
68922;DHT22;55959;51.244;5.724;2022-11-03T12:34:50;18.00;57.00
68922;DHT22;55959;51.244;5.724;2022-11-03T12:37:18;18.00;57.10
68922;DHT22;55959;51.244;5.724;2022-11-03T12:39:43;18.10;57.10
68922;DHT22;55959;51.244;5.724;2022-11-03T12:42:09;18.10;56.90
68922;DHT22;55959;51.244;5.724;2022-11-03T12:44:35;18.10;56.90
68922;DHT22;55959;51.244;5.724;2022-11-03T12:47:01;18.10;56.60
68922;DHT22;55959;51.244;5.724;2022-11-03T12:49:27;18.10;56.60
68922;DHT22;55959;51.244;5.724;2022-11-03T12:51:53;18.10;56.50
68922;DHT22;55959;51.244;5.724;2022-11-03T12:54:19;18.10;56.30
68922;DHT22;55959;51.244;5.724;2022-11-03T12:56:46;18.20;56.30
68922;DHT22;55959;51.244;5.724;2022-11-03T12:59:12;18.20;56.10
68922;DHT22;55959;51.244;5.724;2022-11-03T13:01:38;18.20;56.30
68922;DHT22;55959;51.244;5.724;2022-11-03T13:04:03;18.20;56.30
68922;DHT22;55959;51.244;5.724;2022-11-03T13:06:32;18.20;56.50
68922;DHT22;55959;51.244;5.724;2022-11-03T13:08:58;18.30;56.50
68922;DHT22;55959;51.244;5.724;2022-11-03T13:11:24;18.30;56.60
68922;DHT22;55959;51.244;5.724;2022-11-03T13:14:08;18.30;56.40
68922;DHT22;55959;51.244;5.724;2022-11-03T13:16:34;18.30;56.40
68922;DHT22;55959;51.244;5.724;2022-11-03T13:19:00;18.30;56.40
68922;DHT22;55959;51.244;5.724;2022-11-03T13:21:25;18.30;56.60
68922;DHT22;55959;51.244;5.724;2022-11-03T13:23:52;18.40;56.70
68922;DHT22;55959;51.244;5.724;2022-11-03T13:26:18;18.40;56.80
68922;DHT22;55959;51.244;5.724;2022-11-03T13:28:44;18.40;56.60
68922;DHT22;55959;51.244;5.724;2022-11-03T13:31:10;18.40;56.40
68922;DHT22;55959;51.244;5.724;2022-11-03T13:33:37;18.40;56.50
68922;DHT22;55959;51.244;5.724;2022-11-03T13:36:03;18.40;56.40
68922;DHT22;55959;51.244;5.724;2022-11-03T13:38:29;18.40;56.40
68922;DHT22;55959;51.244;5.724;2022-11-03T13:40:55;18.50;56.50
68922;DHT22;55959;51.244;5.724;2022-11-03T13:43:20;18.40;56.40
68922;DHT22;55959;51.244;5.724;2022-11-03T13:45:46;18.40;56.50
68922;DHT22;55959;51.244;5.724;2022-11-03T13:48:12;18.40;56.40
68922;DHT22;55959;51.244;5.724;2022-11-03T13:50:37;18.40;57.10
68922;DHT22;55959;51.244;5.724;2022-11-03T13:53:03;18.40;56.90
68922;DHT22;55959;51.244;5.724;2022-11-03T13:55:29;18.40;57.40
68922;DHT22;55959;51.244;5.724;2022-11-03T13:57:55;18.30;57.70
68922;DHT22;55959;51.244;5.724;2022-11-03T14:00:20;18.30;58.00
68922;DHT22;55959;51.244;5.724;2022-11-03T14:02:46;18.30;58.30
68922;DHT22;55959;51.244;5.724;2022-11-03T14:05:14;18.20;58.60
68922;DHT22;55959;51.244;5.724;2022-11-03T14:07:40;18.20;59.00
68922;DHT22;55959;51.244;5.724;2022-11-03T14:10:06;18.10;59.20
68922;DHT22;55959;51.244;5.724;2022-11-03T14:12:32;18.10;59.40
68922;DHT22;55959;51.244;5.724;2022-11-03T14:15:01;18.10;59.70
68922;DHT22;55959;51.244;5.724;2022-11-03T14:17:29;18.00;59.90
68922;DHT22;55959;51.244;5.724;2022-11-03T14:19:55;18.00;60.30
68922;DHT22;55959;51.244;5.724;2022-11-03T14:22:22;18.00;60.50
68922;DHT22;55959;51.244;5.724;2022-11-03T14:24:51;18.00;60.80
68922;DHT22;55959;51.244;5.724;2022-11-03T14:27:18;17.90;61.00
68922;DHT22;55959;51.244;5.724;2022-11-03T14:29:44;17.90;61.00
68922;DHT22;55959;51.244;5.724;2022-11-03T14:32:14;17.90;61.10
68922;DHT22;55959;51.244;5.724;2022-11-03T14:34:41;17.80;61.30
68922;DHT22;55959;51.244;5.724;2022-11-03T14:37:08;17.80;61.50
68922;DHT22;55959;51.244;5.724;2022-11-03T14:39:35;17.80;61.60
68922;DHT22;55959;51.244;5.724;2022-11-03T14:42:05;17.80;61.90
68922;DHT22;55959;51.244;5.724;2022-11-03T14:44:39;17.70;61.90
68922;DHT22;55959;51.244;5.724;2022-11-03T14:47:07;17.70;62.00
68922;DHT22;55959;51.244;5.724;2022-11-03T14:49:35;17.70;62.40
68922;DHT22;55959;51.244;5.724;2022-11-03T14:52:02;17.60;62.50
68922;DHT22;55959;51.244;5.724;2022-11-03T14:54:29;17.60;62.80
68922;DHT22;55959;51.244;5.724;2022-11-03T14:56:55;17.60;62.90
68922;DHT22;55959;51.244;5.724;2022-11-03T14:59:22;17.50;62.90
68922;DHT22;55959;51.244;5.724;2022-11-03T15:01:49;17.50;63.00
68922;DHT22;55959;51.244;5.724;2022-11-03T15:04:18;17.50;63.20
68922;DHT22;55959;51.244;5.724;2022-11-03T15:06:45;17.40;64.30
68922;DHT22;55959;51.244;5.724;2022-11-03T15:09:12;17.40;63.50
68922;DHT22;55959;51.244;5.724;2022-11-03T15:11:39;17.40;63.70
68922;DHT22;55959;51.244;5.724;2022-11-03T15:14:05;17.40;63.90
68922;DHT22;55959;51.244;5.724;2022-11-03T15:16:31;17.40;64.00
68922;DHT22;55959;51.244;5.724;2022-11-03T15:18:58;17.40;64.20
68922;DHT22;55959;51.244;5.724;2022-11-03T15:21:24;17.30;64.20
68922;DHT22;55959;51.244;5.724;2022-11-03T15:23:50;17.30;64.30
68922;DHT22;55959;51.244;5.724;2022-11-03T15:26:16;17.30;64.30
68922;DHT22;55959;51.244;5.724;2022-11-03T15:28:42;17.30;64.30
68922;DHT22;55959;51.244;5.724;2022-11-03T15:31:08;17.30;64.30
68922;DHT22;55959;51.244;5.724;2022-11-03T15:33:33;17.30;64.30
68922;DHT22;55959;51.244;5.724;2022-11-03T15:35:59;17.30;64.30
68922;DHT22;55959;51.244;5.724;2022-11-03T15:38:25;17.20;64.30
68922;DHT22;55959;51.244;5.724;2022-11-03T15:40:51;17.20;64.50
68922;DHT22;55959;51.244;5.724;2022-11-03T15:43:17;17.20;64.30
68922;DHT22;55959;51.244;5.724;2022-11-03T15:45:43;17.20;64.30
68922;DHT22;55959;51.244;5.724;2022-11-03T15:48:08;17.20;64.30
68922;DHT22;55959;51.244;5.724;2022-11-03T15:50:34;17.10;64.20
68922;DHT22;55959;51.244;5.724;2022-11-03T15:53:00;17.10;64.20
68922;DHT22;55959;51.244;5.724;2022-11-03T15:55:25;17.10;64.30
68922;DHT22;55959;51.244;5.724;2022-11-03T15:57:51;17.10;64.50
68922;DHT22;55959;51.244;5.724;2022-11-03T16:00:17;17.00;64.70
68922;DHT22;55959;51.244;5.724;2022-11-03T16:02:44;17.00;64.90
68922;DHT22;55959;51.244;5.724;2022-11-03T16:05:11;17.00;65.10
68922;DHT22;55959;51.244;5.724;2022-11-03T16:07:37;17.00;65.30
68922;DHT22;55959;51.244;5.724;2022-11-03T16:10:04;16.90;65.40
68922;DHT22;55959;51.244;5.724;2022-11-03T16:12:30;16.90;65.50
68922;DHT22;55959;51.244;5.724;2022-11-03T16:14:56;16.80;65.70
68922;DHT22;55959;51.244;5.724;2022-11-03T16:17:22;16.80;65.70
68922;DHT22;55959;51.244;5.724;2022-11-03T16:19:49;16.80;65.90
68922;DHT22;55959;51.244;5.724;2022-11-03T16:22:15;16.80;66.00
68922;DHT22;55959;51.244;5.724;2022-11-03T16:24:41;16.70;66.10
68922;DHT22;55959;51.244;5.724;2022-11-03T16:27:09;16.70;66.20
68922;DHT22;55959;51.244;5.724;2022-11-03T16:29:35;16.70;66.30
68922;DHT22;55959;51.244;5.724;2022-11-03T16:32:00;16.70;66.50
68922;DHT22;55959;51.244;5.724;2022-11-03T16:34:26;16.70;66.50
68922;DHT22;55959;51.244;5.724;2022-11-03T16:36:52;16.70;66.70
68922;DHT22;55959;51.244;5.724;2022-11-03T16:39:18;16.70;66.80
68922;DHT22;55959;51.244;5.724;2022-11-03T16:41:43;16.70;67.10
68922;DHT22;55959;51.244;5.724;2022-11-03T16:44:09;16.60;67.20
68922;DHT22;55959;51.244;5.724;2022-11-03T16:46:35;16.60;67.50
68922;DHT22;55959;51.244;5.724;2022-11-03T16:49:00;16.60;67.70
68922;DHT22;55959;51.244;5.724;2022-11-03T16:51:27;16.50;67.80